AAL2758 KLAX-KORD
Flight info
| Callsign | AAL2758 |
|---|---|
| Flight time | N/A |
| Altitude | 35000 |
| Route | DOTSS2 CLEEE PKE J96 CIM SLN IRK BENKY6 |
| Aircraft | B738/M-SDE2E3FGHIRWXY/LB1 |
Departure
| Time | 2026-05-04 17:04 |
|---|---|
| Airport | Los Angeles International Airport (KLAX) |
Arrival
| Time | N/A |
|---|---|
| Airport | Chicago O'Hare International Airport (KORD) |
| Time | Latitude | Longitude | Altitude | Speed | Heading |
|---|---|---|---|---|---|
| 2026-05-04 16:47 | 33.94040 | -118.40613 | 92 ft | 0 kts | 268° |
| 2026-05-04 16:48 | 33.94040 | -118.40601 | 92 ft | 4 kts | 268° |
| 2026-05-04 16:49 | 33.94053 | -118.40558 | 92 ft | 4 kts | 181° |
| 2026-05-04 16:49 | 33.94022 | -118.40552 | 95 ft | 4 kts | 173° |
| 2026-05-04 16:50 | 33.94004 | -118.40550 | 92 ft | 0 kts | 173° |
| 2026-05-04 16:55 | 33.93944 | -118.40539 | 94 ft | 7 kts | 171° |
| 2026-05-04 16:56 | 33.93852 | -118.40525 | 95 ft | 7 kts | 170° |
| 2026-05-04 16:56 | 33.93842 | -118.40369 | 94 ft | 7 kts | 82° |
| 2026-05-04 16:57 | 33.93848 | -118.40309 | 95 ft | 7 kts | 83° |
| 2026-05-04 16:57 | 33.93861 | -118.40170 | 96 ft | 15 kts | 81° |
| 2026-05-04 16:58 | 33.93899 | -118.39800 | 96 ft | 14 kts | 84° |
| 2026-05-04 16:58 | 33.93909 | -118.39686 | 94 ft | 13 kts | 83° |
| 2026-05-04 16:59 | 33.93933 | -118.39471 | 93 ft | 13 kts | 84° |
| 2026-05-04 17:00 | 33.93978 | -118.39048 | 93 ft | 12 kts | 82° |
| 2026-05-04 17:00 | 33.94008 | -118.38735 | 95 ft | 12 kts | 83° |
| 2026-05-04 17:01 | 33.94028 | -118.38534 | 96 ft | 12 kts | 82° |
| 2026-05-04 17:01 | 33.94043 | -118.38387 | 97 ft | 0 kts | 84° |
| 2026-05-04 17:02 | 33.94032 | -118.38340 | 97 ft | 8 kts | 140° |
| 2026-05-04 17:03 | 33.93975 | -118.38328 | 99 ft | 10 kts | 192° |
| 2026-05-04 17:03 | 33.93946 | -118.38389 | 98 ft | 10 kts | 264° |
| 2026-05-04 17:03 | 33.93862 | -118.39215 | 94 ft | 114 kts | 263° |
| 2026-05-04 17:04 | 33.93648 | -118.41532 | 580 ft | 176 kts | 264° |
| 2026-05-04 17:04 | 33.93373 | -118.44348 | 1844 ft | 193 kts | 262° |
| 2026-05-04 17:05 | 33.92651 | -118.47398 | 2466 ft | 228 kts | 232° |
| 2026-05-04 17:05 | 33.90381 | -118.49959 | 3267 ft | 258 kts | 230° |
| 2026-05-04 17:06 | 33.88197 | -118.53153 | 4983 ft | 261 kts | 231° |
| 2026-05-04 17:06 | 33.88057 | -118.53354 | 5084 ft | 261 kts | 231° |
| 2026-05-04 17:07 | 33.87271 | -118.54472 | 5650 ft | 263 kts | 229° |
| 2026-05-04 17:07 | 33.86319 | -118.55433 | 6182 ft | 269 kts | 210° |
| 2026-05-04 17:07 | 33.83889 | -118.55947 | 7289 ft | 276 kts | 174° |
| 2026-05-04 17:07 | 33.82152 | -118.55527 | 8011 ft | 281 kts | 169° |
| 2026-05-04 17:08 | 33.80239 | -118.54980 | 8784 ft | 285 kts | 168° |
| 2026-05-04 17:08 | 33.76339 | -118.53882 | 10307 ft | 291 kts | 170° |
| 2026-05-04 17:08 | 33.74294 | -118.53327 | 10610 ft | 314 kts | 171° |
| 2026-05-04 17:09 | 33.72105 | -118.52689 | 10970 ft | 332 kts | 165° |
| 2026-05-04 17:09 | 33.70083 | -118.51236 | 11596 ft | 349 kts | 140° |
| 2026-05-04 17:09 | 33.68673 | -118.48823 | 12360 ft | 361 kts | 118° |
| 2026-05-04 17:10 | 33.67194 | -118.43801 | 13446 ft | 375 kts | 113° |
| 2026-05-04 17:10 | 33.65519 | -118.37906 | 14751 ft | 382 kts | 115° |
| 2026-05-04 17:11 | 33.64373 | -118.33407 | 15646 ft | 398 kts | 101° |
| 2026-05-04 17:12 | 33.64305 | -118.30046 | 16263 ft | 405 kts | 94° |
| 2026-05-04 17:12 | 33.64392 | -118.23188 | 17341 ft | 417 kts | 94° |
| 2026-05-04 17:13 | 33.64454 | -118.12636 | 18956 ft | 430 kts | 95° |
| 2026-05-04 17:14 | 33.64449 | -118.02001 | 20458 ft | 443 kts | 96° |
| 2026-05-04 17:14 | 33.64442 | -117.98287 | 20924 ft | 447 kts | 96° |
| 2026-05-04 17:14 | 33.64431 | -117.90762 | 21851 ft | 455 kts | 96° |
| 2026-05-04 17:15 | 33.64425 | -117.86942 | 22296 ft | 459 kts | 96° |
| 2026-05-04 17:15 | 33.64442 | -117.79204 | 23121 ft | 470 kts | 91° |
| 2026-05-04 17:16 | 33.65724 | -117.71371 | 23975 ft | 483 kts | 80° |
| 2026-05-04 17:16 | 33.68235 | -117.59527 | 25105 ft | 494 kts | 81° |
| 2026-05-04 17:17 | 33.69024 | -117.55551 | 25510 ft | 497 kts | 82° |
| 2026-05-04 17:17 | 33.71293 | -117.43662 | 26351 ft | 506 kts | 82° |
| 2026-05-04 17:18 | 33.72077 | -117.39516 | 26664 ft | 508 kts | 82° |
| 2026-05-04 17:18 | 33.73648 | -117.31224 | 27388 ft | 513 kts | 82° |
| 2026-05-04 17:19 | 33.75170 | -117.22796 | 27934 ft | 516 kts | 89° |
| 2026-05-04 17:19 | 33.75145 | -117.14294 | 28545 ft | 507 kts | 101° |
| 2026-05-04 17:20 | 33.74777 | -117.05764 | 29101 ft | 515 kts | 100° |
| 2026-05-04 17:20 | 33.74583 | -116.97124 | 29643 ft | 520 kts | 99° |
| 2026-05-04 17:20 | 33.74497 | -116.92771 | 29881 ft | 523 kts | 99° |
| 2026-05-04 17:21 | 33.74298 | -116.83991 | 30338 ft | 528 kts | 99° |
| 2026-05-04 17:21 | 33.74082 | -116.75123 | 30796 ft | 534 kts | 99° |
| 2026-05-04 17:22 | 33.73982 | -116.71004 | 30990 ft | 536 kts | 99° |
| 2026-05-04 17:22 | 33.73874 | -116.66532 | 31283 ft | 536 kts | 99° |
| 2026-05-04 17:23 | 33.73547 | -116.53103 | 32412 ft | 536 kts | 98° |
| 2026-05-04 17:23 | 33.73433 | -116.48629 | 32656 ft | 537 kts | 99° |
| 2026-05-04 17:23 | 33.73193 | -116.39591 | 32891 ft | 544 kts | 99° |
| 2026-05-04 17:24 | 33.73070 | -116.35051 | 33100 ft | 544 kts | 99° |
| 2026-05-04 17:24 | 33.72698 | -116.21359 | 33693 ft | 548 kts | 98° |
| 2026-05-04 17:25 | 33.72571 | -116.16787 | 33887 ft | 549 kts | 99° |
| 2026-05-04 17:25 | 33.72425 | -116.07576 | 34334 ft | 557 kts | 89° |
| 2026-05-04 17:26 | 33.74471 | -115.98523 | 34805 ft | 565 kts | 72° |
| 2026-05-04 17:26 | 33.78408 | -115.85227 | 34972 ft | 564 kts | 72° |
| 2026-05-04 17:27 | 33.80914 | -115.76354 | 34995 ft | 565 kts | 73° |
| 2026-05-04 17:28 | 33.85837 | -115.58389 | 34994 ft | 566 kts | 73° |
| 2026-05-04 17:29 | 33.93299 | -115.31055 | 34961 ft | 573 kts | 73° |
| 2026-05-04 17:31 | 33.99419 | -115.08472 | 34969 ft | 568 kts | 73° |
| 2026-05-04 17:32 | 34.05501 | -114.85816 | 34961 ft | 569 kts | 73° |
| 2026-05-04 17:33 | 34.10351 | -114.67631 | 34957 ft | 571 kts | 73° |
| 2026-05-04 17:34 | 34.15495 | -114.49451 | 34949 ft | 572 kts | 72° |
| 2026-05-04 17:35 | 34.21899 | -114.26744 | 34949 ft | 573 kts | 72° |
| 2026-05-04 17:36 | 34.24453 | -114.17610 | 34953 ft | 573 kts | 72° |
| 2026-05-04 17:36 | 34.27000 | -114.08474 | 34966 ft | 574 kts | 72° |
| 2026-05-04 17:37 | 34.29532 | -113.99340 | 34953 ft | 573 kts | 72° |
| 2026-05-04 17:37 | 34.32058 | -113.90197 | 34954 ft | 572 kts | 72° |
| 2026-05-04 17:38 | 34.34573 | -113.81059 | 34958 ft | 572 kts | 72° |
| 2026-05-04 17:38 | 34.37084 | -113.71910 | 34972 ft | 572 kts | 72° |
| 2026-05-04 17:39 | 34.40825 | -113.58237 | 34960 ft | 572 kts | 72° |
| 2026-05-04 17:39 | 34.43311 | -113.49111 | 34973 ft | 571 kts | 72° |
| 2026-05-04 17:40 | 34.45788 | -113.39985 | 34972 ft | 570 kts | 72° |
| 2026-05-04 17:40 | 34.48253 | -113.30865 | 35008 ft | 569 kts | 72° |
| 2026-05-04 17:41 | 34.50711 | -113.21743 | 35012 ft | 569 kts | 72° |
| 2026-05-04 17:41 | 34.52749 | -113.14167 | 35012 ft | 568 kts | 72° |
| 2026-05-04 17:42 | 34.55195 | -113.05045 | 35005 ft | 568 kts | 72° |
| 2026-05-04 17:42 | 34.57631 | -112.95925 | 35018 ft | 568 kts | 72° |
| 2026-05-04 17:43 | 34.60061 | -112.86795 | 35015 ft | 567 kts | 72° |
| 2026-05-04 17:43 | 34.62484 | -112.77676 | 35019 ft | 568 kts | 72° |
| 2026-05-04 17:44 | 34.64899 | -112.68532 | 35030 ft | 568 kts | 72° |
| 2026-05-04 17:44 | 34.67307 | -112.59389 | 35044 ft | 568 kts | 72° |
| 2026-05-04 17:45 | 34.69708 | -112.50255 | 35047 ft | 568 kts | 72° |
| 2026-05-04 17:45 | 34.72014 | -112.41080 | 35043 ft | 567 kts | 75° |
| 2026-05-04 17:46 | 34.74079 | -112.31885 | 35050 ft | 567 kts | 75° |
| 2026-05-04 17:46 | 34.76136 | -112.22635 | 35043 ft | 567 kts | 75° |
| 2026-05-04 17:47 | 34.78231 | -112.13381 | 35019 ft | 567 kts | 75° |
| 2026-05-04 17:47 | 34.80338 | -112.04137 | 35030 ft | 566 kts | 75° |
| 2026-05-04 17:48 | 34.82435 | -111.94897 | 35029 ft | 566 kts | 74° |
| 2026-05-04 17:48 | 34.84524 | -111.85647 | 35043 ft | 566 kts | 74° |
| 2026-05-04 17:49 | 34.86591 | -111.76457 | 35054 ft | 566 kts | 75° |
| 2026-05-04 17:49 | 34.88662 | -111.67205 | 35060 ft | 567 kts | 75° |
| 2026-05-04 17:50 | 34.90731 | -111.57932 | 35071 ft | 567 kts | 74° |
| 2026-05-04 17:50 | 34.92796 | -111.48649 | 35081 ft | 567 kts | 74° |
| 2026-05-04 17:51 | 34.94851 | -111.39370 | 35094 ft | 567 kts | 75° |
| 2026-05-04 17:51 | 34.96896 | -111.30091 | 35087 ft | 566 kts | 74° |
| 2026-05-04 17:52 | 34.98934 | -111.20802 | 35086 ft | 567 kts | 74° |
| 2026-05-04 17:52 | 35.00952 | -111.11579 | 35090 ft | 566 kts | 75° |
| 2026-05-04 17:53 | 35.02978 | -111.02281 | 35082 ft | 567 kts | 74° |
| 2026-05-04 17:53 | 35.04996 | -110.92980 | 35071 ft | 567 kts | 74° |
| 2026-05-04 17:54 | 35.07010 | -110.83673 | 35073 ft | 567 kts | 74° |
| 2026-05-04 17:54 | 35.09019 | -110.74349 | 35060 ft | 567 kts | 74° |
| 2026-05-04 17:55 | 35.11018 | -110.65030 | 35068 ft | 567 kts | 74° |
| 2026-05-04 17:55 | 35.13012 | -110.55696 | 35070 ft | 567 kts | 74° |
| 2026-05-04 17:56 | 35.14989 | -110.46403 | 35066 ft | 568 kts | 74° |
| 2026-05-04 17:56 | 35.16972 | -110.37040 | 35074 ft | 569 kts | 74° |
| 2026-05-04 17:57 | 35.18951 | -110.27667 | 35061 ft | 568 kts | 74° |
| 2026-05-04 17:57 | 35.20915 | -110.18324 | 35083 ft | 568 kts | 74° |
| 2026-05-04 17:58 | 35.22860 | -110.09023 | 35079 ft | 568 kts | 74° |
| 2026-05-04 17:58 | 35.24811 | -109.99662 | 35094 ft | 568 kts | 74° |
| 2026-05-04 17:59 | 35.26672 | -109.90695 | 35079 ft | 568 kts | 74° |
| 2026-05-04 18:00 | 35.29502 | -109.76994 | 35100 ft | 568 kts | 74° |
| 2026-05-04 18:00 | 35.31283 | -109.68329 | 35105 ft | 568 kts | 74° |
| 2026-05-04 18:01 | 35.33204 | -109.58937 | 35111 ft | 568 kts | 74° |
| 2026-05-04 18:01 | 35.35041 | -109.49920 | 35113 ft | 568 kts | 74° |
| 2026-05-04 18:02 | 35.37738 | -109.36628 | 35110 ft | 568 kts | 74° |
| 2026-05-04 18:02 | 35.39564 | -109.27570 | 35109 ft | 568 kts | 74° |
| 2026-05-04 18:03 | 35.41453 | -109.18168 | 35111 ft | 568 kts | 74° |
| 2026-05-04 18:03 | 35.43333 | -109.08757 | 35106 ft | 568 kts | 74° |
| 2026-05-04 18:04 | 35.45208 | -108.99358 | 35105 ft | 567 kts | 74° |
| 2026-05-04 18:05 | 35.48039 | -108.85331 | 35103 ft | 566 kts | 70° |
| 2026-05-04 18:05 | 35.50439 | -108.76172 | 35118 ft | 562 kts | 67° |
| 2026-05-04 18:06 | 35.54302 | -108.62574 | 35111 ft | 562 kts | 66° |
| 2026-05-04 18:06 | 35.56808 | -108.53478 | 35109 ft | 562 kts | 67° |
| 2026-05-04 18:07 | 35.59263 | -108.44361 | 35115 ft | 562 kts | 68° |
| 2026-05-04 18:07 | 35.61701 | -108.35252 | 35115 ft | 561 kts | 68° |
| 2026-05-04 18:08 | 35.64138 | -108.26151 | 35111 ft | 561 kts | 68° |
| 2026-05-04 18:08 | 35.66574 | -108.17033 | 35111 ft | 561 kts | 68° |
| 2026-05-04 18:09 | 35.71411 | -107.98822 | 35109 ft | 561 kts | 68° |
| 2026-05-04 18:10 | 35.73827 | -107.89680 | 35111 ft | 562 kts | 68° |
| 2026-05-04 18:10 | 35.76242 | -107.80520 | 35107 ft | 563 kts | 68° |
| 2026-05-04 18:11 | 35.78649 | -107.71353 | 35101 ft | 563 kts | 68° |
| 2026-05-04 18:11 | 35.81054 | -107.62159 | 35105 ft | 563 kts | 68° |
| 2026-05-04 18:12 | 35.83453 | -107.52973 | 35111 ft | 562 kts | 68° |
| 2026-05-04 18:12 | 35.85833 | -107.43792 | 35110 ft | 562 kts | 68° |
| 2026-05-04 18:13 | 35.88207 | -107.34607 | 35093 ft | 562 kts | 69° |
| 2026-05-04 18:14 | 35.91735 | -107.20907 | 35101 ft | 561 kts | 68° |
| 2026-05-04 18:14 | 35.94089 | -107.11739 | 35099 ft | 560 kts | 68° |
| 2026-05-04 18:15 | 35.98766 | -106.93413 | 35121 ft | 559 kts | 68° |
| 2026-05-04 18:16 | 36.01089 | -106.84261 | 35124 ft | 559 kts | 68° |
| 2026-05-04 18:16 | 36.03404 | -106.75105 | 35115 ft | 558 kts | 68° |
| 2026-05-04 18:17 | 36.06861 | -106.61369 | 35095 ft | 557 kts | 68° |
| 2026-05-04 18:18 | 36.10285 | -106.47700 | 35090 ft | 556 kts | 68° |
| 2026-05-04 18:18 | 36.12560 | -106.38563 | 35099 ft | 555 kts | 68° |
| 2026-05-04 18:19 | 36.15954 | -106.24890 | 35075 ft | 552 kts | 68° |
| 2026-05-04 18:19 | 36.18196 | -106.15809 | 35100 ft | 551 kts | 68° |
| 2026-05-04 18:20 | 36.20415 | -106.06796 | 35084 ft | 551 kts | 68° |
| 2026-05-04 18:20 | 36.22642 | -105.97722 | 35105 ft | 551 kts | 68° |
| 2026-05-04 18:21 | 36.24865 | -105.88624 | 35086 ft | 551 kts | 68° |
| 2026-05-04 18:21 | 36.27078 | -105.79538 | 35079 ft | 550 kts | 68° |
| 2026-05-04 18:22 | 36.29281 | -105.70456 | 35099 ft | 552 kts | 69° |
| 2026-05-04 18:22 | 36.31486 | -105.61325 | 35085 ft | 553 kts | 69° |
| 2026-05-04 18:23 | 36.33689 | -105.52175 | 35099 ft | 555 kts | 69° |
| 2026-05-04 18:23 | 36.35879 | -105.43042 | 35096 ft | 555 kts | 69° |
| 2026-05-04 18:24 | 36.38077 | -105.33851 | 35121 ft | 556 kts | 69° |
| 2026-05-04 18:24 | 36.40271 | -105.24639 | 35121 ft | 557 kts | 69° |
| 2026-05-04 18:25 | 36.42458 | -105.15413 | 35102 ft | 558 kts | 69° |
| 2026-05-04 18:25 | 36.44639 | -105.06173 | 35070 ft | 559 kts | 69° |
| 2026-05-04 18:26 | 36.46819 | -104.96927 | 35090 ft | 559 kts | 69° |
| 2026-05-04 18:26 | 36.49016 | -104.87651 | 35077 ft | 559 kts | 66° |
| 2026-05-04 18:27 | 36.52017 | -104.78821 | 35057 ft | 553 kts | 57° |
| 2026-05-04 18:27 | 36.55360 | -104.70272 | 35026 ft | 554 kts | 57° |
| 2026-05-04 18:28 | 36.58718 | -104.61620 | 34990 ft | 556 kts | 57° |
| 2026-05-04 18:28 | 36.62012 | -104.52893 | 34971 ft | 557 kts | 58° |
| 2026-05-04 18:29 | 36.65266 | -104.44152 | 34973 ft | 556 kts | 58° |
| 2026-05-04 18:29 | 36.68510 | -104.35408 | 34960 ft | 555 kts | 58° |
| 2026-05-04 18:30 | 36.73337 | -104.22391 | 34961 ft | 553 kts | 58° |
| 2026-05-04 18:31 | 36.76563 | -104.13672 | 34956 ft | 553 kts | 58° |
| 2026-05-04 18:31 | 36.79254 | -104.06377 | 34955 ft | 552 kts | 58° |
| 2026-05-04 18:32 | 36.82458 | -103.97673 | 34930 ft | 551 kts | 58° |
| 2026-05-04 18:32 | 36.85645 | -103.88969 | 34927 ft | 550 kts | 58° |
| 2026-05-04 18:33 | 36.88799 | -103.80354 | 34929 ft | 550 kts | 58° |
| 2026-05-04 18:33 | 36.91976 | -103.71646 | 34925 ft | 550 kts | 58° |
| 2026-05-04 18:34 | 36.95142 | -103.62952 | 34918 ft | 549 kts | 58° |
| 2026-05-04 18:34 | 36.98300 | -103.54246 | 34913 ft | 550 kts | 58° |
| 2026-05-04 18:35 | 37.01447 | -103.45535 | 34918 ft | 549 kts | 58° |
| 2026-05-04 18:35 | 37.04588 | -103.36828 | 34881 ft | 548 kts | 58° |
| 2026-05-04 18:36 | 37.07716 | -103.28128 | 34887 ft | 549 kts | 58° |
| 2026-05-04 18:36 | 37.10846 | -103.19385 | 34878 ft | 549 kts | 58° |
| 2026-05-04 18:37 | 37.13959 | -103.10679 | 34874 ft | 551 kts | 58° |
| 2026-05-04 18:37 | 37.17081 | -103.01913 | 34851 ft | 550 kts | 58° |
| 2026-05-04 18:38 | 37.20073 | -102.93486 | 34848 ft | 550 kts | 58° |
| 2026-05-04 18:38 | 37.23185 | -102.84718 | 34850 ft | 549 kts | 58° |
| 2026-05-04 18:39 | 37.26283 | -102.75958 | 34854 ft | 549 kts | 58° |
| 2026-05-04 18:39 | 37.29373 | -102.67189 | 34850 ft | 548 kts | 58° |
| 2026-05-04 18:40 | 37.32442 | -102.58435 | 34838 ft | 547 kts | 58° |
| 2026-05-04 18:40 | 37.35497 | -102.49704 | 34844 ft | 545 kts | 58° |
| 2026-05-04 18:41 | 37.38542 | -102.40984 | 34838 ft | 543 kts | 58° |
| 2026-05-04 18:41 | 37.41562 | -102.32349 | 34842 ft | 541 kts | 58° |
| 2026-05-04 18:42 | 37.44576 | -102.23668 | 34834 ft | 540 kts | 58° |
| 2026-05-04 18:42 | 37.47578 | -102.15008 | 34820 ft | 539 kts | 58° |
| 2026-05-04 18:43 | 37.50561 | -102.06357 | 34800 ft | 538 kts | 58° |
| 2026-05-04 18:43 | 37.53520 | -101.97769 | 34795 ft | 538 kts | 58° |
| 2026-05-04 18:44 | 37.56490 | -101.89123 | 34792 ft | 538 kts | 58° |
| 2026-05-04 18:44 | 37.59459 | -101.80445 | 34777 ft | 538 kts | 58° |
| 2026-05-04 18:45 | 37.62421 | -101.71757 | 34768 ft | 538 kts | 58° |
| 2026-05-04 18:45 | 37.65374 | -101.63085 | 34773 ft | 537 kts | 58° |
| 2026-05-04 18:46 | 37.68297 | -101.54476 | 34764 ft | 537 kts | 59° |
| 2026-05-04 18:46 | 37.71233 | -101.45802 | 34762 ft | 537 kts | 59° |
| 2026-05-04 18:47 | 37.74160 | -101.37118 | 34763 ft | 536 kts | 59° |
| 2026-05-04 18:47 | 37.77071 | -101.28460 | 34756 ft | 535 kts | 59° |
| 2026-05-04 18:48 | 37.79970 | -101.19801 | 34763 ft | 534 kts | 59° |
| 2026-05-04 18:48 | 37.82847 | -101.11186 | 34770 ft | 533 kts | 59° |
| 2026-05-04 18:49 | 37.85720 | -101.02567 | 34777 ft | 533 kts | 59° |
| 2026-05-04 18:49 | 37.88590 | -100.93938 | 34782 ft | 533 kts | 59° |
| 2026-05-04 18:50 | 37.91442 | -100.85344 | 34767 ft | 533 kts | 59° |
| 2026-05-04 18:50 | 37.94303 | -100.76685 | 34765 ft | 532 kts | 59° |
| 2026-05-04 18:51 | 37.97148 | -100.68051 | 34768 ft | 531 kts | 59° |
| 2026-05-04 18:51 | 37.99980 | -100.59414 | 34765 ft | 529 kts | 60° |
| 2026-05-04 18:52 | 38.02796 | -100.50809 | 34776 ft | 526 kts | 60° |
| 2026-05-04 18:52 | 38.05594 | -100.42240 | 34763 ft | 525 kts | 60° |
| 2026-05-04 18:53 | 38.08356 | -100.33758 | 34762 ft | 522 kts | 60° |
| 2026-05-04 18:53 | 38.11109 | -100.25274 | 34769 ft | 520 kts | 60° |
| 2026-05-04 18:54 | 38.13858 | -100.16770 | 34766 ft | 519 kts | 60° |
| 2026-05-04 18:54 | 38.16596 | -100.08284 | 34768 ft | 518 kts | 60° |
| 2026-05-04 18:55 | 38.19328 | -99.99796 | 34766 ft | 519 kts | 60° |
| 2026-05-04 18:55 | 38.23415 | -99.87045 | 34760 ft | 519 kts | 60° |
| 2026-05-04 18:56 | 38.26132 | -99.78536 | 34755 ft | 520 kts | 60° |
| 2026-05-04 18:56 | 38.28847 | -99.70002 | 34760 ft | 520 kts | 60° |
| 2026-05-04 18:57 | 38.31556 | -99.61461 | 34757 ft | 520 kts | 61° |
| 2026-05-04 18:57 | 38.34241 | -99.52970 | 34749 ft | 521 kts | 61° |
| 2026-05-04 18:58 | 38.36944 | -99.44396 | 34753 ft | 521 kts | 61° |
| 2026-05-04 18:58 | 38.39640 | -99.35826 | 34749 ft | 520 kts | 61° |
| 2026-05-04 18:59 | 38.42324 | -99.27263 | 34750 ft | 519 kts | 61° |
| 2026-05-04 18:59 | 38.44995 | -99.18710 | 34749 ft | 518 kts | 61° |
| 2026-05-04 19:00 | 38.47655 | -99.10170 | 34743 ft | 517 kts | 62° |
| 2026-05-04 19:00 | 38.50304 | -99.01639 | 34743 ft | 515 kts | 62° |
| 2026-05-04 19:01 | 38.52935 | -98.93143 | 34749 ft | 513 kts | 62° |
| 2026-05-04 19:01 | 38.55533 | -98.84729 | 34750 ft | 512 kts | 62° |
| 2026-05-04 19:02 | 38.58135 | -98.76274 | 34747 ft | 510 kts | 62° |
| 2026-05-04 19:02 | 38.60722 | -98.67841 | 34751 ft | 509 kts | 62° |
| 2026-05-04 19:03 | 38.63304 | -98.59398 | 34756 ft | 509 kts | 62° |
| 2026-05-04 19:03 | 38.65878 | -98.50958 | 34751 ft | 509 kts | 62° |
| 2026-05-04 19:04 | 38.68448 | -98.42507 | 34749 ft | 509 kts | 62° |
| 2026-05-04 19:04 | 38.71011 | -98.34041 | 34759 ft | 510 kts | 62° |
| 2026-05-04 19:05 | 38.73555 | -98.25614 | 34767 ft | 510 kts | 62° |
| 2026-05-04 19:05 | 38.76110 | -98.17142 | 34768 ft | 510 kts | 62° |
| 2026-05-04 19:06 | 38.78661 | -98.08652 | 34767 ft | 510 kts | 62° |
| 2026-05-04 19:06 | 38.81207 | -98.00147 | 34763 ft | 511 kts | 62° |
| 2026-05-04 19:07 | 38.83749 | -97.91623 | 34757 ft | 510 kts | 62° |
| 2026-05-04 19:07 | 38.86275 | -97.83130 | 34746 ft | 509 kts | 63° |
| 2026-05-04 19:08 | 38.88796 | -97.74629 | 34738 ft | 508 kts | 63° |
| 2026-05-04 19:08 | 38.91299 | -97.66166 | 34719 ft | 506 kts | 63° |
| 2026-05-04 19:09 | 38.93734 | -97.57761 | 34733 ft | 505 kts | 65° |
| 2026-05-04 19:09 | 38.95991 | -97.49216 | 34725 ft | 504 kts | 66° |
| 2026-05-04 19:10 | 38.98198 | -97.40687 | 34735 ft | 502 kts | 66° |
| 2026-05-04 19:10 | 39.00417 | -97.32192 | 34720 ft | 500 kts | 65° |
| 2026-05-04 19:11 | 39.02648 | -97.23705 | 34732 ft | 500 kts | 66° |
| 2026-05-04 19:11 | 39.04867 | -97.15237 | 34714 ft | 500 kts | 66° |
| 2026-05-04 19:12 | 39.08190 | -97.02516 | 34710 ft | 499 kts | 66° |
| 2026-05-04 19:13 | 39.10379 | -96.94095 | 34699 ft | 499 kts | 66° |
| 2026-05-04 19:13 | 39.12578 | -96.85609 | 34709 ft | 499 kts | 66° |
| 2026-05-04 19:14 | 39.14756 | -96.77168 | 34701 ft | 499 kts | 66° |
| 2026-05-04 19:14 | 39.16939 | -96.68685 | 34702 ft | 498 kts | 66° |
| 2026-05-04 19:15 | 39.19112 | -96.60206 | 34705 ft | 498 kts | 66° |
| 2026-05-04 19:15 | 39.21280 | -96.51717 | 34703 ft | 498 kts | 67° |
| 2026-05-04 19:16 | 39.23442 | -96.43229 | 34701 ft | 498 kts | 67° |
| 2026-05-04 19:16 | 39.25597 | -96.34737 | 34704 ft | 498 kts | 67° |
| 2026-05-04 19:17 | 39.27383 | -96.27672 | 34702 ft | 498 kts | 67° |
| 2026-05-04 19:17 | 39.29525 | -96.19177 | 34706 ft | 497 kts | 67° |
| 2026-05-04 19:18 | 39.31659 | -96.10678 | 34703 ft | 497 kts | 67° |
| 2026-05-04 19:18 | 39.33782 | -96.02197 | 34701 ft | 496 kts | 67° |
| 2026-05-04 19:19 | 39.35897 | -95.93713 | 34708 ft | 495 kts | 68° |
| 2026-05-04 19:19 | 39.37999 | -95.85254 | 34699 ft | 494 kts | 68° |
| 2026-05-04 19:20 | 39.40093 | -95.76798 | 34700 ft | 493 kts | 68° |
| 2026-05-04 19:20 | 39.42175 | -95.68371 | 34702 ft | 491 kts | 68° |
| 2026-05-04 19:21 | 39.44233 | -95.60007 | 34706 ft | 490 kts | 68° |
| 2026-05-04 19:21 | 39.46303 | -95.51563 | 34703 ft | 489 kts | 68° |
| 2026-05-04 19:22 | 39.48342 | -95.43216 | 34702 ft | 489 kts | 68° |
| 2026-05-04 19:22 | 39.50384 | -95.34823 | 34701 ft | 488 kts | 68° |
| 2026-05-04 19:23 | 39.52420 | -95.26429 | 34698 ft | 488 kts | 68° |
| 2026-05-04 19:23 | 39.54448 | -95.18036 | 34688 ft | 488 kts | 68° |